sensor_id;sensor_type;location;lat;lon;timestamp;pressure;altitude;pressure_sealevel;temperature;humidity
4586;BME280;2305;50.118;8.952;2022-12-29T00:01:38;99849.13;;;12.11;100.00
4586;BME280;2305;50.118;8.952;2022-12-29T00:04:12;99849.34;;;12.18;100.00
4586;BME280;2305;50.118;8.952;2022-12-29T00:06:42;99843.09;;;12.19;100.00
4586;BME280;2305;50.118;8.952;2022-12-29T00:09:12;99843.22;;;12.17;100.00
4586;BME280;2305;50.118;8.952;2022-12-29T00:11:44;99840.31;;;12.20;100.00
4586;BME280;2305;50.118;8.952;2022-12-29T00:14:15;99832.22;;;12.22;100.00
4586;BME280;2305;50.118;8.952;2022-12-29T00:17:08;99839.19;;;12.23;100.00
4586;BME280;2305;50.118;8.952;2022-12-29T00:19:36;99841.97;;;12.21;100.00
4586;BME280;2305;50.118;8.952;2022-12-29T00:22:44;99846.94;;;12.24;100.00
4586;BME280;2305;50.118;8.952;2022-12-29T00:25:30;99832.03;;;12.33;100.00
4586;BME280;2305;50.118;8.952;2022-12-29T00:28:18;99835.88;;;12.38;100.00
4586;BME280;2305;50.118;8.952;2022-12-29T00:31:12;99825.63;;;12.35;100.00
4586;BME280;2305;50.118;8.952;2022-12-29T00:34:23;99840.59;;;12.44;100.00
4586;BME280;2305;50.118;8.952;2022-12-29T00:37:10;99832.13;;;12.41;100.00
4586;BME280;2305;50.118;8.952;2022-12-29T00:39:41;99841.56;;;12.43;100.00
4586;BME280;2305;50.118;8.952;2022-12-29T00:42:29;99847.84;;;12.42;100.00
4586;BME280;2305;50.118;8.952;2022-12-29T00:45:19;99840.13;;;12.49;100.00
4586;BME280;2305;50.118;8.952;2022-12-29T00:47:50;99851.50;;;12.32;100.00
4586;BME280;2305;50.118;8.952;2022-12-29T00:50:22;99856.41;;;12.27;100.00
4586;BME280;2305;50.118;8.952;2022-12-29T00:52:52;99849.31;;;12.27;100.00
4586;BME280;2305;50.118;8.952;2022-12-29T00:55:22;99852.19;;;12.34;100.00
4586;BME280;2305;50.118;8.952;2022-12-29T00:57:50;99848.25;;;12.20;100.00
4586;BME280;2305;50.118;8.952;2022-12-29T01:00:19;99848.72;;;12.06;100.00
4586;BME280;2305;50.118;8.952;2022-12-29T01:02:49;99856.34;;;12.09;100.00
4586;BME280;2305;50.118;8.952;2022-12-29T01:05:17;99854.44;;;12.02;100.00
4586;BME280;2305;50.118;8.952;2022-12-29T01:07:50;99853.63;;;11.92;100.00
4586;BME280;2305;50.118;8.952;2022-12-29T01:10:21;99853.09;;;11.88;100.00
4586;BME280;2305;50.118;8.952;2022-12-29T01:12:54;99864.28;;;11.73;100.00
4586;BME280;2305;50.118;8.952;2022-12-29T01:15:25;99859.28;;;11.70;100.00
4586;BME280;2305;50.118;8.952;2022-12-29T01:17:58;99855.13;;;11.48;100.00
4586;BME280;2305;50.118;8.952;2022-12-29T01:20:29;99856.41;;;11.35;100.00
4586;BME280;2305;50.118;8.952;2022-12-29T01:22:59;99859.88;;;11.16;100.00
4586;BME280;2305;50.118;8.952;2022-12-29T01:25:28;99855.88;;;11.03;100.00
4586;BME280;2305;50.118;8.952;2022-12-29T01:27:58;99860.06;;;11.05;100.00
4586;BME280;2305;50.118;8.952;2022-12-29T01:30:32;99845.75;;;10.98;100.00
4586;BME280;2305;50.118;8.952;2022-12-29T01:33:00;99832.28;;;11.01;100.00
4586;BME280;2305;50.118;8.952;2022-12-29T01:35:29;99847.53;;;10.88;100.00
4586;BME280;2305;50.118;8.952;2022-12-29T01:37:59;99836.31;;;10.86;100.00
4586;BME280;2305;50.118;8.952;2022-12-29T01:40:27;99836.19;;;10.88;100.00
4586;BME280;2305;50.118;8.952;2022-12-29T01:42:56;99848.66;;;10.86;100.00
4586;BME280;2305;50.118;8.952;2022-12-29T01:45:27;99842.28;;;10.88;100.00
4586;BME280;2305;50.118;8.952;2022-12-29T01:47:59;99835.75;;;10.83;100.00
4586;BME280;2305;50.118;8.952;2022-12-29T01:50:32;99836.03;;;10.89;100.00
4586;BME280;2305;50.118;8.952;2022-12-29T01:53:05;99831.47;;;10.91;100.00
4586;BME280;2305;50.118;8.952;2022-12-29T01:55:40;99845.47;;;10.92;100.00
4586;BME280;2305;50.118;8.952;2022-12-29T01:58:12;99844.91;;;10.98;100.00
4586;BME280;2305;50.118;8.952;2022-12-29T02:00:46;99840.31;;;11.00;100.00
4586;BME280;2305;50.118;8.952;2022-12-29T02:03:16;99839.78;;;11.06;100.00
4586;BME280;2305;50.118;8.952;2022-12-29T02:05:52;99842.97;;;11.00;100.00
4586;BME280;2305;50.118;8.952;2022-12-29T02:08:28;99843.38;;;11.05;100.00
4586;BME280;2305;50.118;8.952;2022-12-29T02:11:04;99834.06;;;11.01;100.00
4586;BME280;2305;50.118;8.952;2022-12-29T02:13:34;99839.09;;;11.04;100.00
4586;BME280;2305;50.118;8.952;2022-12-29T02:16:25;99834.94;;;11.01;100.00
4586;BME280;2305;50.118;8.952;2022-12-29T02:19:12;99837.44;;;11.03;100.00
4586;BME280;2305;50.118;8.952;2022-12-29T02:22:12;99837.69;;;11.00;100.00
4586;BME280;2305;50.118;8.952;2022-12-29T02:25:18;99832.28;;;11.01;100.00
4586;BME280;2305;50.118;8.952;2022-12-29T02:28:22;99845.59;;;11.00;100.00
4586;BME280;2305;50.118;8.952;2022-12-29T02:31:06;99841.44;;;10.97;100.00
4586;BME280;2305;50.118;8.952;2022-12-29T02:33:50;99832.28;;;11.01;100.00
4586;BME280;2305;50.118;8.952;2022-12-29T02:36:32;99834.78;;;11.03;100.00
4586;BME280;2305;50.118;8.952;2022-12-29T02:39:12;99828.53;;;11.13;100.00
4586;BME280;2305;50.118;8.952;2022-12-29T02:41:51;99823.38;;;11.21;100.00
4586;BME280;2305;50.118;8.952;2022-12-29T02:44:31;99809.91;;;11.24;100.00
4586;BME280;2305;50.118;8.952;2022-12-29T02:47:12;99814.91;;;11.27;100.00
4586;BME280;2305;50.118;8.952;2022-12-29T02:49:52;99816.28;;;11.41;100.00
4586;BME280;2305;50.118;8.952;2022-12-29T02:52:27;99808.22;;;11.42;100.00
4586;BME280;2305;50.118;8.952;2022-12-29T02:55:01;99794.84;;;11.53;100.00
4586;BME280;2305;50.118;8.952;2022-12-29T02:57:32;99786.53;;;11.48;100.00
4586;BME280;2305;50.118;8.952;2022-12-29T03:00:05;99774.44;;;11.55;100.00
4586;BME280;2305;50.118;8.952;2022-12-29T03:03:04;99802.06;;;11.51;100.00
4586;BME280;2305;50.118;8.952;2022-12-29T03:05:53;99802.63;;;11.64;100.00
4586;BME280;2305;50.118;8.952;2022-12-29T03:08:31;99780.38;;;11.76;100.00
4586;BME280;2305;50.118;8.952;2022-12-29T03:11:05;99785.47;;;11.78;100.00
4586;BME280;2305;50.118;8.952;2022-12-29T03:13:59;99783.81;;;11.77;100.00
4586;BME280;2305;50.118;8.952;2022-12-29T03:16:53;99762.34;;;11.89;100.00
4586;BME280;2305;50.118;8.952;2022-12-29T03:19:30;99766.69;;;11.90;100.00
4586;BME280;2305;50.118;8.952;2022-12-29T03:22:02;99772.50;;;11.94;100.00
4586;BME280;2305;50.118;8.952;2022-12-29T03:25:03;99764.47;;;11.86;100.00
4586;BME280;2305;50.118;8.952;2022-12-29T03:27:39;99764.03;;;11.90;100.00
4586;BME280;2305;50.118;8.952;2022-12-29T03:30:12;99763.50;;;11.87;100.00
4586;BME280;2305;50.118;8.952;2022-12-29T03:32:47;99755.84;;;11.84;100.00
4586;BME280;2305;50.118;8.952;2022-12-29T03:35:25;99749.47;;;11.86;100.00
4586;BME280;2305;50.118;8.952;2022-12-29T03:38:11;99750.97;;;11.89;100.00
4586;BME280;2305;50.118;8.952;2022-12-29T03:40:45;99763.53;;;12.04;100.00
4586;BME280;2305;50.118;8.952;2022-12-29T03:43:16;99743.78;;;12.08;100.00
4586;BME280;2305;50.118;8.952;2022-12-29T03:45:47;99736.59;;;12.01;100.00
4586;BME280;2305;50.118;8.952;2022-12-29T03:48:16;99736.22;;;11.96;100.00
4586;BME280;2305;50.118;8.952;2022-12-29T03:50:50;99742.75;;;11.92;100.00
4586;BME280;2305;50.118;8.952;2022-12-29T03:53:20;99741.34;;;11.97;100.00
4586;BME280;2305;50.118;8.952;2022-12-29T03:55:49;99731.47;;;11.99;100.00
4586;BME280;2305;50.118;8.952;2022-12-29T03:58:19;99739.53;;;11.98;100.00
4586;BME280;2305;50.118;8.952;2022-12-29T04:00:57;99741.03;;;12.00;100.00
4586;BME280;2305;50.118;8.952;2022-12-29T04:03:30;99731.38;;;11.91;100.00
4586;BME280;2305;50.118;8.952;2022-12-29T04:06:05;99728.88;;;11.90;100.00
4586;BME280;2305;50.118;8.952;2022-12-29T04:08:53;99729.38;;;12.03;100.00
4586;BME280;2305;50.118;8.952;2022-12-29T04:11:21;99729.28;;;11.95;100.00
4586;BME280;2305;50.118;8.952;2022-12-29T04:13:59;99724.97;;;11.94;100.00
4586;BME280;2305;50.118;8.952;2022-12-29T04:16:33;99725.50;;;11.97;100.00
4586;BME280;2305;50.118;8.952;2022-12-29T04:19:04;99734.09;;;11.99;100.00
4586;BME280;2305;50.118;8.952;2022-12-29T04:21:36;99722.34;;;11.94;100.00
4586;BME280;2305;50.118;8.952;2022-12-29T04:24:06;99709.94;;;11.94;100.00
4586;BME280;2305;50.118;8.952;2022-12-29T04:26:39;99711.91;;;11.92;100.00
4586;BME280;2305;50.118;8.952;2022-12-29T04:29:53;99710.41;;;11.90;100.00
4586;BME280;2305;50.118;8.952;2022-12-29T04:32:52;99715.03;;;12.05;100.00
4586;BME280;2305;50.118;8.952;2022-12-29T04:35:23;99721.59;;;12.01;100.00
4586;BME280;2305;50.118;8.952;2022-12-29T04:37:54;99741.13;;;12.08;100.00
4586;BME280;2305;50.118;8.952;2022-12-29T04:40:23;99727.13;;;12.08;100.00
4586;BME280;2305;50.118;8.952;2022-12-29T04:42:55;99727.53;;;12.03;100.00
4586;BME280;2305;50.118;8.952;2022-12-29T04:45:29;99719.72;;;12.11;100.00
4586;BME280;2305;50.118;8.952;2022-12-29T04:48:05;99730.03;;;12.05;100.00
4586;BME280;2305;50.118;8.952;2022-12-29T04:50:56;99741.13;;;12.08;100.00
4586;BME280;2305;50.118;8.952;2022-12-29T04:53:31;99729.97;;;12.14;100.00
4586;BME280;2305;50.118;8.952;2022-12-29T04:56:04;99718.88;;;12.11;100.00
4586;BME280;2305;50.118;8.952;2022-12-29T04:58:33;99725.00;;;12.11;100.00
4586;BME280;2305;50.118;8.952;2022-12-29T05:01:06;99716.19;;;12.20;100.00
4586;BME280;2305;50.118;8.952;2022-12-29T05:03:39;99704.31;;;12.24;100.00
4586;BME280;2305;50.118;8.952;2022-12-29T05:06:10;99713.00;;;12.17;100.00
4586;BME280;2305;50.118;8.952;2022-12-29T05:08:39;99708.53;;;12.17;100.00
4586;BME280;2305;50.118;8.952;2022-12-29T05:11:07;99725.28;;;12.08;100.00
4586;BME280;2305;50.118;8.952;2022-12-29T05:13:36;99722.97;;;12.05;100.00
4586;BME280;2305;50.118;8.952;2022-12-29T05:16:07;99722.78;;;12.07;100.00
4586;BME280;2305;50.118;8.952;2022-12-29T05:18:35;99723.25;;;12.20;100.00
4586;BME280;2305;50.118;8.952;2022-12-29T05:21:04;99723.78;;;12.23;100.00
4586;BME280;2305;50.118;8.952;2022-12-29T05:23:36;99722.72;;;12.16;100.00
4586;BME280;2305;50.118;8.952;2022-12-29T05:26:13;99737.50;;;12.09;100.00
4586;BME280;2305;50.118;8.952;2022-12-29T05:28:56;99726.94;;;12.09;100.00
4586;BME280;2305;50.118;8.952;2022-12-29T05:31:25;99732.69;;;12.22;100.00
4586;BME280;2305;50.118;8.952;2022-12-29T05:33:54;99746.56;;;12.24;100.00
4586;BME280;2305;50.118;8.952;2022-12-29T05:36:23;99750.59;;;12.28;100.00
4586;BME280;2305;50.118;8.952;2022-12-29T05:38:58;99742.28;;;12.23;100.00
4586;BME280;2305;50.118;8.952;2022-12-29T05:41:29;99737.31;;;12.20;100.00
4586;BME280;2305;50.118;8.952;2022-12-29T05:44:26;99745.22;;;12.20;100.00
4586;BME280;2305;50.118;8.952;2022-12-29T05:47:16;99735.66;;;12.19;100.00
4586;BME280;2305;50.118;8.952;2022-12-29T05:50:29;99736.78;;;12.17;100.00
4586;BME280;2305;50.118;8.952;2022-12-29T05:53:15;99735.47;;;12.21;100.00
4586;BME280;2305;50.118;8.952;2022-12-29T05:55:46;99722.91;;;12.15;100.00
4586;BME280;2305;50.118;8.952;2022-12-29T05:58:18;99727.88;;;12.18;100.00
4586;BME280;2305;50.118;8.952;2022-12-29T06:00:47;99734.34;;;12.23;100.00
4586;BME280;2305;50.118;8.952;2022-12-29T06:03:21;99728.88;;;12.34;100.00
4586;BME280;2305;50.118;8.952;2022-12-29T06:05:52;99727.50;;;12.30;100.00
4586;BME280;2305;50.118;8.952;2022-12-29T06:08:27;99733.31;;;12.34;100.00
4586;BME280;2305;50.118;8.952;2022-12-29T06:10:59;99734.97;;;12.35;100.00
4586;BME280;2305;50.118;8.952;2022-12-29T06:13:30;99730.06;;;12.40;100.00
4586;BME280;2305;50.118;8.952;2022-12-29T06:16:00;99725.53;;;12.32;100.00
4586;BME280;2305;50.118;8.952;2022-12-29T06:18:29;99725.38;;;12.34;100.00
4586;BME280;2305;50.118;8.952;2022-12-29T06:21:04;99719.28;;;12.33;100.00
4586;BME280;2305;50.118;8.952;2022-12-29T06:23:35;99716.41;;;12.44;100.00
4586;BME280;2305;50.118;8.952;2022-12-29T06:26:06;99713.16;;;12.50;100.00
4586;BME280;2305;50.118;8.952;2022-12-29T06:28:36;99718.38;;;12.42;100.00
4586;BME280;2305;50.118;8.952;2022-12-29T06:31:05;99706.06;;;12.51;100.00
4586;BME280;2305;50.118;8.952;2022-12-29T06:33:42;99718.44;;;12.50;100.00
4586;BME280;2305;50.118;8.952;2022-12-29T06:36:19;99726.06;;;12.53;100.00
4586;BME280;2305;50.118;8.952;2022-12-29T06:38:49;99722.13;;;12.57;100.00
4586;BME280;2305;50.118;8.952;2022-12-29T06:41:21;99719.69;;;12.64;100.00
4586;BME280;2305;50.118;8.952;2022-12-29T06:44:17;99709.13;;;12.64;100.00
4586;BME280;2305;50.118;8.952;2022-12-29T06:47:02;99706.94;;;12.59;100.00
4586;BME280;2305;50.118;8.952;2022-12-29T06:49:31;99745.59;;;12.60;100.00
4586;BME280;2305;50.118;8.952;2022-12-29T06:51:59;99728.47;;;12.64;100.00
4586;BME280;2305;50.118;8.952;2022-12-29T06:54:41;99724.09;;;12.73;100.00
4586;BME280;2305;50.118;8.952;2022-12-29T06:57:14;99729.84;;;12.68;100.00
4586;BME280;2305;50.118;8.952;2022-12-29T06:59:46;99720.59;;;12.72;100.00
4586;BME280;2305;50.118;8.952;2022-12-29T07:02:22;99716.69;;;12.76;100.00
4586;BME280;2305;50.118;8.952;2022-12-29T07:04:57;99715.38;;;12.80;100.00
4586;BME280;2305;50.118;8.952;2022-12-29T07:07:28;99700.50;;;12.79;100.00
4586;BME280;2305;50.118;8.952;2022-12-29T07:09:57;99707.72;;;12.69;100.00
4586;BME280;2305;50.118;8.952;2022-12-29T07:12:28;99711.03;;;12.71;100.00
4586;BME280;2305;50.118;8.952;2022-12-29T07:15:06;99705.13;;;12.77;100.00
4586;BME280;2305;50.118;8.952;2022-12-29T07:17:39;99700.81;;;12.76;100.00
4586;BME280;2305;50.118;8.952;2022-12-29T07:20:11;99707.25;;;12.74;100.00
4586;BME280;2305;50.118;8.952;2022-12-29T07:22:41;99718.81;;;12.73;100.00
4586;BME280;2305;50.118;8.952;2022-12-29T07:25:16;99700.13;;;12.74;100.00
4586;BME280;2305;50.118;8.952;2022-12-29T07:27:45;99710.34;;;12.69;100.00
4586;BME280;2305;50.118;8.952;2022-12-29T07:30:20;99716.69;;;12.76;100.00
4586;BME280;2305;50.118;8.952;2022-12-29T07:32:52;99708.69;;;12.68;100.00
4586;BME280;2305;50.118;8.952;2022-12-29T07:35:21;99722.09;;;12.92;100.00
4586;BME280;2305;50.118;8.952;2022-12-29T07:37:50;99714.91;;;13.02;100.00
4586;BME280;2305;50.118;8.952;2022-12-29T07:40:21;99718.69;;;13.00;100.00
4586;BME280;2305;50.118;8.952;2022-12-29T07:42:58;99709.84;;;12.91;100.00
4586;BME280;2305;50.118;8.952;2022-12-29T07:45:45;99715.03;;;12.75;100.00
4586;BME280;2305;50.118;8.952;2022-12-29T07:48:14;99722.25;;;12.73;100.00
4586;BME280;2305;50.118;8.952;2022-12-29T07:50:47;99708.69;;;12.68;100.00
4586;BME280;2305;50.118;8.952;2022-12-29T07:53:22;99713.59;;;12.63;100.00
4586;BME280;2305;50.118;8.952;2022-12-29T07:55:53;99718.50;;;12.58;100.00
4586;BME280;2305;50.118;8.952;2022-12-29T07:58:27;99724.91;;;12.56;100.00
4586;BME280;2305;50.118;8.952;2022-12-29T08:01:00;99714.06;;;12.59;100.00
4586;BME280;2305;50.118;8.952;2022-12-29T08:03:30;99727.09;;;12.60;100.00
4586;BME280;2305;50.118;8.952;2022-12-29T08:05:59;99726.56;;;12.57;100.00
4586;BME280;2305;50.118;8.952;2022-12-29T08:08:31;99730.00;;;12.67;100.00
4586;BME280;2305;50.118;8.952;2022-12-29T08:10:59;99730.03;;;12.75;100.00
4586;BME280;2305;50.118;8.952;2022-12-29T08:13:28;99737.00;;;12.76;100.00
4586;BME280;2305;50.118;8.952;2022-12-29T08:15:57;99735.19;;;12.76;100.00
4586;BME280;2305;50.118;8.952;2022-12-29T08:18:33;99740.81;;;12.81;100.00
4586;BME280;2305;50.118;8.952;2022-12-29T08:21:03;99763.22;;;12.87;100.00
4586;BME280;2305;50.118;8.952;2022-12-29T08:23:36;99748.47;;;12.84;100.00
4586;BME280;2305;50.118;8.952;2022-12-29T08:26:06;99740.81;;;12.81;100.00
4586;BME280;2305;50.118;8.952;2022-12-29T08:28:38;99753.81;;;12.92;100.00
4586;BME280;2305;50.118;8.952;2022-12-29T08:31:10;99747.44;;;12.95;100.00
4586;BME280;2305;50.118;8.952;2022-12-29T08:33:42;99758.13;;;12.93;100.00
4586;BME280;2305;50.118;8.952;2022-12-29T08:36:11;99751.84;;;12.94;100.00
4586;BME280;2305;50.118;8.952;2022-12-29T08:38:42;99759.06;;;13.02;100.00
4586;BME280;2305;50.118;8.952;2022-12-29T08:41:10;99769.97;;;12.89;100.00
4586;BME280;2305;50.118;8.952;2022-12-29T08:43:41;99767.84;;;12.93;100.00
4586;BME280;2305;50.118;8.952;2022-12-29T08:46:16;99760.91;;;12.92;100.00
4586;BME280;2305;50.118;8.952;2022-12-29T08:48:46;99774.69;;;12.95;100.00
4586;BME280;2305;50.118;8.952;2022-12-29T08:51:14;99759.34;;;12.99;100.00
4586;BME280;2305;50.118;8.952;2022-12-29T08:53:50;99765.94;;;12.95;100.00
4586;BME280;2305;50.118;8.952;2022-12-29T08:56:18;99765.06;;;12.94;100.00
4586;BME280;2305;50.118;8.952;2022-12-29T08:59:15;99775.38;;;12.97;100.00
4586;BME280;2305;50.118;8.952;2022-12-29T09:01:46;99770.09;;;12.97;100.00
4586;BME280;2305;50.118;8.952;2022-12-29T09:04:22;99770.63;;;13.01;100.00
4586;BME280;2305;50.118;8.952;2022-12-29T09:06:51;99773.25;;;13.01;100.00
4586;BME280;2305;50.118;8.952;2022-12-29T09:09:19;99761.28;;;13.14;100.00
4586;BME280;2305;50.118;8.952;2022-12-29T09:11:50;99762.94;;;13.15;100.00
4586;BME280;2305;50.118;8.952;2022-12-29T09:14:25;99770.31;;;13.04;100.00
4586;BME280;2305;50.118;8.952;2022-12-29T09:16:55;99769.09;;;12.98;100.00
4586;BME280;2305;50.118;8.952;2022-12-29T09:19:42;99763.97;;;12.97;100.00
4586;BME280;2305;50.118;8.952;2022-12-29T09:22:15;99768.94;;;13.00;100.00
4586;BME280;2305;50.118;8.952;2022-12-29T09:24:43;99771.44;;;13.01;100.00
4586;BME280;2305;50.118;8.952;2022-12-29T09:27:12;99792.63;;;12.92;100.00
4586;BME280;2305;50.118;8.952;2022-12-29T09:29:43;99795.69;;;12.97;100.00
4586;BME280;2305;50.118;8.952;2022-12-29T09:32:14;99825.47;;;12.99;100.00
4586;BME280;2305;50.118;8.952;2022-12-29T09:34:50;99823.69;;;12.90;100.00
4586;BME280;2305;50.118;8.952;2022-12-29T09:37:21;99831.88;;;12.79;100.00
4586;BME280;2305;50.118;8.952;2022-12-29T09:39:49;99824.09;;;12.77;100.00
4586;BME280;2305;50.118;8.952;2022-12-29T09:42:25;99822.19;;;12.70;100.00
4586;BME280;2305;50.118;8.952;2022-12-29T09:45:04;99827.66;;;12.68;100.00
4586;BME280;2305;50.118;8.952;2022-12-29T09:47:36;99838.63;;;12.64;100.00
4586;BME280;2305;50.118;8.952;2022-12-29T09:50:12;99834.50;;;12.61;100.00
4586;BME280;2305;50.118;8.952;2022-12-29T09:52:47;99837.22;;;12.69;100.00
4586;BME280;2305;50.118;8.952;2022-12-29T09:55:21;99834.88;;;12.66;100.00
4586;BME280;2305;50.118;8.952;2022-12-29T09:57:56;99829.81;;;12.55;100.00
4586;BME280;2305;50.118;8.952;2022-12-29T10:00:35;99832.59;;;12.54;100.00
4586;BME280;2305;50.118;8.952;2022-12-29T10:03:15;99839.78;;;12.44;100.00
4586;BME280;2305;50.118;8.952;2022-12-29T10:05:53;99842.56;;;12.42;100.00
4586;BME280;2305;50.118;8.952;2022-12-29T10:08:32;99852.81;;;12.45;100.00
4586;BME280;2305;50.118;8.952;2022-12-29T10:11:14;99834.47;;;12.44;100.00
4586;BME280;2305;50.118;8.952;2022-12-29T10:14:01;99850.84;;;12.30;100.00
4586;BME280;2305;50.118;8.952;2022-12-29T10:16:47;99847.50;;;12.28;100.00
4586;BME280;2305;50.118;8.952;2022-12-29T10:19:34;99853.53;;;12.20;100.00
4586;BME280;2305;50.118;8.952;2022-12-29T10:22:21;99861.72;;;12.17;100.00
4586;BME280;2305;50.118;8.952;2022-12-29T10:24:50;99881.75;;;12.10;100.00
4586;BME280;2305;50.118;8.952;2022-12-29T10:27:21;99891.53;;;12.00;100.00
4586;BME280;2305;50.118;8.952;2022-12-29T10:29:56;99877.38;;;12.01;100.00
4586;BME280;2305;50.118;8.952;2022-12-29T10:32:32;99891.53;;;12.00;100.00
4586;BME280;2305;50.118;8.952;2022-12-29T10:35:11;99871.84;;;11.95;100.00
4586;BME280;2305;50.118;8.952;2022-12-29T10:37:52;99865.28;;;11.99;100.00
4586;BME280;2305;50.118;8.952;2022-12-29T10:40:29;99873.63;;;11.94;100.00
4586;BME280;2305;50.118;8.952;2022-12-29T10:43:02;99852.25;;;11.97;100.00
4586;BME280;2305;50.118;8.952;2022-12-29T10:45:39;99862.19;;;12.03;100.00
4586;BME280;2305;50.118;8.952;2022-12-29T10:48:18;99864.63;;;11.87;100.00
4586;BME280;2305;50.118;8.952;2022-12-29T10:50:59;99851.53;;;11.95;100.00
4586;BME280;2305;50.118;8.952;2022-12-29T10:53:36;99852.84;;;11.82;100.00
4586;BME280;2305;50.118;8.952;2022-12-29T10:56:28;99856.34;;;11.73;100.00
4586;BME280;2305;50.118;8.952;2022-12-29T10:59:00;99841.78;;;11.59;100.00
4586;BME280;2305;50.118;8.952;2022-12-29T11:01:37;99850.41;;;11.61;100.00
4586;BME280;2305;50.118;8.952;2022-12-29T11:04:22;99853.59;;;11.55;100.00
4586;BME280;2305;50.118;8.952;2022-12-29T11:06:58;99856.38;;;11.63;100.00
4586;BME280;2305;50.118;8.952;2022-12-29T11:09:30;99855.22;;;11.75;100.00
4586;BME280;2305;50.118;8.952;2022-12-29T11:12:21;99848.91;;;11.95;100.00
4586;BME280;2305;50.118;8.952;2022-12-29T11:15:13;99835.13;;;12.01;100.00
4586;BME280;2305;50.118;8.952;2022-12-29T11:17:46;99835.91;;;12.11;100.00
4586;BME280;2305;50.118;8.952;2022-12-29T11:20:27;99836.88;;;12.10;100.00
4586;BME280;2305;50.118;8.952;2022-12-29T11:22:57;99831.44;;;12.12;100.00
4586;BME280;2305;50.118;8.952;2022-12-29T11:25:27;99828.69;;;12.13;100.00
4586;BME280;2305;50.118;8.952;2022-12-29T11:27:59;99841.97;;;12.21;100.00
4586;BME280;2305;50.118;8.952;2022-12-29T11:30:30;99837.31;;;12.33;100.00
4586;BME280;2305;50.118;8.952;2022-12-29T11:33:02;99853.34;;;12.49;100.00
4586;BME280;2305;50.118;8.952;2022-12-29T11:35:34;99846.56;;;12.64;100.00
4586;BME280;2305;50.118;8.952;2022-12-29T11:38:17;99855.66;;;12.61;100.00
4586;BME280;2305;50.118;8.952;2022-12-29T11:40:49;99848.88;;;12.76;100.00
4586;BME280;2305;50.118;8.952;2022-12-29T11:43:21;99850.22;;;12.80;100.00
4586;BME280;2305;50.118;8.952;2022-12-29T11:45:53;99841.16;;;12.83;100.00
4586;BME280;2305;50.118;8.952;2022-12-29T11:48:29;99848.34;;;12.90;100.00
4586;BME280;2305;50.118;8.952;2022-12-29T11:50:59;99859.72;;;12.91;100.00
4586;BME280;2305;50.118;8.952;2022-12-29T11:53:37;99847.22;;;13.10;100.00
4586;BME280;2305;50.118;8.952;2022-12-29T11:56:14;99848.50;;;13.24;100.00
4586;BME280;2305;50.118;8.952;2022-12-29T11:58:43;99847.66;;;13.23;100.00
4586;BME280;2305;50.118;8.952;2022-12-29T12:01:17;99853.19;;;13.30;100.00
4586;BME280;2305;50.118;8.952;2022-12-29T12:03:52;99854.28;;;13.45;100.00
4586;BME280;2305;50.118;8.952;2022-12-29T12:06:24;99847.16;;;13.45;100.00
4586;BME280;2305;50.118;8.952;2022-12-29T12:08:56;99854.56;;;13.42;100.00
4586;BME280;2305;50.118;8.952;2022-12-29T12:11:34;99852.16;;;13.48;100.00
4586;BME280;2305;50.118;8.952;2022-12-29T12:14:15;99851.16;;;13.49;100.00
4586;BME280;2305;50.118;8.952;2022-12-29T12:17:27;99855.97;;;13.28;100.00
4586;BME280;2305;50.118;8.952;2022-12-29T12:20:14;99844.63;;;13.36;100.00
4586;BME280;2305;50.118;8.952;2022-12-29T12:22:51;99844.53;;;13.28;100.00
4586;BME280;2305;50.118;8.952;2022-12-29T12:25:29;99857.03;;;13.35;100.00
4586;BME280;2305;50.118;8.952;2022-12-29T12:28:14;99851.72;;;13.35;100.00
4586;BME280;2305;50.118;8.952;2022-12-29T12:30:48;99873.88;;;13.34;100.00
4586;BME280;2305;50.118;8.952;2022-12-29T12:33:26;99864.81;;;13.37;100.00
4586;BME280;2305;50.118;8.952;2022-12-29T12:36:11;99863.81;;;13.38;100.00
4586;BME280;2305;50.118;8.952;2022-12-29T12:38:49;99856.50;;;13.32;100.00
4586;BME280;2305;50.118;8.952;2022-12-29T12:41:32;99860.81;;;13.33;100.00
4586;BME280;2305;50.118;8.952;2022-12-29T12:44:12;99861.94;;;13.30;100.00
4586;BME280;2305;50.118;8.952;2022-12-29T12:47:14;99854.97;;;13.29;100.00
4586;BME280;2305;50.118;8.952;2022-12-29T12:50:12;99860.22;;;13.21;100.00
4586;BME280;2305;50.118;8.952;2022-12-29T12:53:00;99856.19;;;13.17;100.00
4586;BME280;2305;50.118;8.952;2022-12-29T12:55:45;99860.88;;;13.06;100.00
4586;BME280;2305;50.118;8.952;2022-12-29T12:58:25;99867.63;;;13.18;100.00
4586;BME280;2305;50.118;8.952;2022-12-29T13:01:28;99864.91;;;13.10;100.00
4586;BME280;2305;50.118;8.952;2022-12-29T13:04:19;99856.13;;;13.09;100.00
4586;BME280;2305;50.118;8.952;2022-12-29T13:07:00;99862.72;;;13.05;100.00
4586;BME280;2305;50.118;8.952;2022-12-29T13:09:45;99870.41;;;12.99;100.00
4586;BME280;2305;50.118;8.952;2022-12-29T13:12:30;99858.56;;;13.03;100.00
4586;BME280;2305;50.118;8.952;2022-12-29T13:15:12;99844.34;;;13.04;100.00
4586;BME280;2305;50.118;8.952;2022-12-29T13:17:47;99846.69;;;13.07;100.00
4586;BME280;2305;50.118;8.952;2022-12-29T13:20:27;99842.81;;;13.19;100.00
4586;BME280;2305;50.118;8.952;2022-12-29T13:23:05;99842.06;;;13.26;100.00
4586;BME280;2305;50.118;8.952;2022-12-29T13:25:41;99848.09;;;13.36;100.00
4586;BME280;2305;50.118;8.952;2022-12-29T13:28:18;99842.19;;;14.34;100.00
4586;BME280;2305;50.118;8.952;2022-12-29T13:30:58;99844.88;;;15.24;100.00
4586;BME280;2305;50.118;8.952;2022-12-29T13:33:38;99838.16;;;15.84;100.00
4586;BME280;2305;50.118;8.952;2022-12-29T13:36:19;99842.84;;;15.66;100.00
4586;BME280;2305;50.118;8.952;2022-12-29T13:38:59;99845.88;;;15.55;100.00
4586;BME280;2305;50.118;8.952;2022-12-29T13:41:31;99846.53;;;15.57;100.00
4586;BME280;2305;50.118;8.952;2022-12-29T13:44:03;99847.66;;;15.62;100.00
4586;BME280;2305;50.118;8.952;2022-12-29T13:46:40;99844.56;;;15.35;100.00
4586;BME280;2305;50.118;8.952;2022-12-29T13:49:14;99851.50;;;15.20;100.00
4586;BME280;2305;50.118;8.952;2022-12-29T13:51:49;99860.59;;;14.93;100.00
4586;BME280;2305;50.118;8.952;2022-12-29T13:54:27;99856.72;;;14.72;100.00
4586;BME280;2305;50.118;8.952;2022-12-29T13:57:03;99864.72;;;14.22;100.00
4586;BME280;2305;50.118;8.952;2022-12-29T13:59:40;99863.63;;;14.07;100.00